St Ives, United Kingdom
Current Conditions -  °F | °C
As of 5:50 PM on Monday 26 Jan 2015 (Local Time) from EGDR Reporting Station
Haze Haze  
Wind Chill: 41°   Ceiling: 3000
Heat Index: 45°   Visibility: 6mi
Dew Point: 37°   Wind: 7mph
Humidity: 76%   Direction: 330°NNW
Pressure: 30.42"   Gusts: NA
Location:  50.21°N, 5.49°W
Report Text: EGDR 261750Z 33006KT 9999 HZ FEW024 BKN030 BKN200 07/03 Q1030 BLU TEMPO SCT022 WHT
Loading
Personal Weather Stations






























Interactive Weather Map New forecast layout! Learn more

10-Day Weather Forecast

Advertisements
Track Severe Weather on mobile